Barnum Island, New York
Current Conditions -  °F | °C
As of 6:51 AM on Friday 19 Dec 2014 (Local Time) from KJFK Reporting Station
Overcast Overcast  
Wind Chill: 30°   Ceiling: 3700
Heat Index: 38°   Visibility: 10mi
Dew Point: 22°   Wind: 12mph
Humidity: 53%   Direction: 310°NW
Pressure: 30.01"   Gusts: NA
Location:  40.6062°N, 73.6508°W
Report Text: KJFK 191151Z 31010KT 10SM OVC037 03/M06 A3001 RMK AO2 SLP160 T00331056 10039 20028 53007 $
Loading
Personal Weather Stations






























Interactive Weather Map New forecast layout! Learn more

10-Day Weather Forecast

Advertisements
Track Severe Weather on mobile